Time;durP1;ratioP1;P1;durP2;ratioP2;P2;SDS_P1;SDS_P2;PMS_P1;PMS_P2;Temp;Humidity;BMP_temperature;BMP_pressure;BME280_temperature;BME280_humidity;BME280_pressure;Samples;Min_cycle;Max_cycle;Signal;HPM_P1;HPM_P2
2023/01/18 00:01:00;;;;;;;32.20;19.13;;;0.90;99.90;;;;;;2045560;29;20367;-75
2023/01/18 00:02:00;;;;;;;29.83;18.38;;;1.00;99.90;;;;;;2045974;29;20030;-76
2023/01/18 00:03:01;;;;;;;34.33;19.38;;;1.00;99.90;;;;;;2043818;29;20043;-75
2023/01/18 00:04:01;;;;;;;34.03;20.80;;;1.00;99.90;;;;;;2045520;29;20023;-76
2023/01/18 00:05:02;;;;;;;32.25;19.73;;;1.00;99.90;;;;;;2045520;28;20492;-76
2023/01/18 00:06:05;;;;;;;35.13;20.70;;;1.00;99.90;;;;;;2045603;29;20041;-76
2023/01/18 00:07:06;;;;;;;30.80;19.73;;;1.00;99.90;;;;;;2045730;29;20035;-76
2023/01/18 00:08:12;;;;;;;33.72;19.75;;;1.00;99.90;;;;;;2044236;29;20062;-76
2023/01/18 00:09:12;;;;;;;35.83;20.85;;;1.00;99.90;;;;;;2045907;29;20447;-76
2023/01/18 00:10:13;;;;;;;33.97;20.23;;;1.00;99.90;;;;;;2045498;29;20062;-75
2023/01/18 00:11:17;;;;;;;36.58;21.33;;;1.00;99.90;;;;;;2045508;29;20035;-76
2023/01/18 00:12:18;;;;;;;37.63;22.50;;;1.00;99.90;;;;;;2045897;29;20035;-76
2023/01/18 00:13:19;;;;;;;37.13;22.33;;;1.00;99.90;;;;;;2045700;29;20434;-77
2023/01/18 00:14:19;;;;;;;39.20;22.58;;;1.10;99.90;;;;;;2045321;29;20138;-76
2023/01/18 00:15:20;;;;;;;39.42;22.30;;;1.10;99.90;;;;;;2045931;29;20041;-76
2023/01/18 00:16:21;;;;;;;37.15;21.88;;;1.10;99.90;;;;;;2045495;29;20027;-75
2023/01/18 00:17:21;;;;;;;37.72;22.40;;;1.00;99.90;;;;;;2044528;29;20134;-75
2023/01/18 00:18:22;;;;;;;37.72;21.63;;;1.00;99.90;;;;;;2047610;28;20131;-74
2023/01/18 00:19:22;;;;;;;38.00;22.00;;;1.00;99.90;;;;;;2039621;29;20067;-74
2023/01/18 00:20:25;;;;;;;37.33;21.40;;;1.00;99.90;;;;;;2039941;29;20111;-75
2023/01/18 00:21:26;;;;;;;37.25;21.45;;;1.00;99.90;;;;;;2048109;29;20457;-74
2023/01/18 00:22:27;;;;;;;36.63;21.63;;;1.00;99.90;;;;;;2046850;29;20035;-76
2023/01/18 00:23:28;;;;;;;36.80;21.60;;;1.00;99.90;;;;;;2048667;29;20027;-75
2023/01/18 00:24:28;;;;;;;36.35;21.60;;;1.00;99.90;;;;;;2048156;29;20023;-75
2023/01/18 00:25:29;;;;;;;35.85;21.13;;;1.00;99.90;;;;;;2047822;28;20109;-75
2023/01/18 00:26:30;;;;;;;36.88;21.48;;;1.00;99.90;;;;;;2047681;29;20332;-74
2023/01/18 00:27:30;;;;;;;36.78;21.15;;;1.00;99.90;;;;;;2046967;28;20666;-74
2023/01/18 00:28:31;;;;;;;35.83;21.05;;;1.00;99.90;;;;;;2039933;29;20055;-75
2023/01/18 00:29:32;;;;;;;33.50;20.65;;;1.00;99.90;;;;;;2039639;29;20040;-74
2023/01/18 00:30:32;;;;;;;35.90;21.05;;;1.00;99.90;;;;;;2048005;29;20027;-73
2023/01/18 00:31:33;;;;;;;35.38;21.70;;;1.10;99.90;;;;;;2039775;29;20059;-75
2023/01/18 00:32:33;;;;;;;34.22;21.50;;;1.10;99.90;;;;;;2038108;29;20035;-74
2023/01/18 00:33:34;;;;;;;37.75;21.55;;;1.00;99.90;;;;;;2048331;29;20082;-74
2023/01/18 00:34:35;;;;;;;35.25;20.83;;;1.00;99.90;;;;;;2048236;29;20053;-74
2023/01/18 00:35:35;;;;;;;36.97;22.38;;;1.00;99.90;;;;;;2048251;29;20054;-74
2023/01/18 00:36:36;;;;;;;36.42;21.48;;;1.00;99.90;;;;;;2048213;29;20368;-74
2023/01/18 00:37:37;;;;;;;37.28;21.25;;;1.10;99.90;;;;;;2047168;29;20501;-74
2023/01/18 00:38:38;;;;;;;36.50;20.95;;;1.10;99.90;;;;;;2048501;29;20105;-74
2023/01/18 00:39:39;;;;;;;34.42;21.05;;;1.10;99.90;;;;;;2048139;28;20034;-74
2023/01/18 00:40:40;;;;;;;36.85;21.35;;;1.10;99.90;;;;;;2048074;29;20047;-74
2023/01/18 00:43:37;;;;;;;35.75;20.55;;;1.10;99.90;;;;;;2039379;29;20050;-74
2023/01/18 00:44:20;;;;;;;38.08;20.55;;;1.10;99.90;;;;;;2040757;29;20392;-75
2023/01/18 00:45:21;;;;;;;37.70;20.92;;;1.10;99.90;;;;;;2035659;29;20093;-76
2023/01/18 00:46:24;;;;;;;34.45;20.20;;;1.10;99.90;;;;;;2039183;29;20542;-74
2023/01/18 00:47:25;;;;;;;33.25;18.75;;;1.10;99.90;;;;;;2045654;29;20031;-74
2023/01/18 00:48:26;;;;;;;32.03;18.52;;;1.10;99.90;;;;;;2048336;29;20371;-74
2023/01/18 00:49:26;;;;;;;32.05;18.08;;;1.10;99.90;;;;;;2048051;29;20053;-74
2023/01/18 00:50:27;;;;;;;28.83;17.55;;;1.10;99.90;;;;;;2048196;28;20502;-74
2023/01/18 00:51:27;;;;;;;31.60;17.42;;;1.10;99.90;;;;;;2048135;29;20031;-74
2023/01/18 00:52:28;;;;;;;27.75;16.23;;;1.10;99.90;;;;;;2038218;29;20110;-75
2023/01/18 00:53:29;;;;;;;27.10;15.75;;;1.10;99.90;;;;;;2039583;29;20023;-74
2023/01/18 00:54:29;;;;;;;24.65;15.40;;;1.10;99.90;;;;;;2047522;29;20110;-74
2023/01/18 00:55:30;;;;;;;23.42;15.43;;;1.10;99.90;;;;;;2047915;29;20130;-74
2023/01/18 00:56:31;;;;;;;24.05;14.38;;;1.10;99.90;;;;;;2047749;29;20042;-74
2023/01/18 00:57:31;;;;;;;25.35;15.05;;;1.10;99.90;;;;;;2047281;29;20187;-76
2023/01/18 00:58:32;;;;;;;23.48;14.55;;;1.10;99.90;;;;;;2048131;28;20066;-75
2023/01/18 00:59:32;;;;;;;24.80;15.23;;;1.10;99.90;;;;;;2039437;29;20028;-74
2023/01/18 01:00:33;;;;;;;22.27;14.05;;;1.10;99.90;;;;;;2039298;29;20460;-76
2023/01/18 01:01:33;;;;;;;25.00;14.82;;;1.10;99.90;;;;;;2048230;29;20560;-75
2023/01/18 01:02:38;;;;;;;22.70;13.95;;;1.10;99.90;;;;;;2046588;28;20521;-75
2023/01/18 01:07:43;;;;;;;23.80;13.57;;;1.10;99.90;;;;;;2040857;29;20426;-75
2023/01/18 01:08:48;;;;;;;22.13;13.20;;;1.10;99.90;;;;;;2047760;29;20370;-75
2023/01/18 01:09:49;;;;;;;21.17;13.75;;;1.10;99.90;;;;;;2046087;28;20042;-76
2023/01/18 01:10:52;;;;;;;19.75;13.07;;;1.00;99.90;;;;;;2048395;28;20045;-75
2023/01/18 01:26:31;;;;;;;22.90;14.20;;;1.10;99.90;;;;;;2040745;29;20035;-75
2023/01/18 01:27:31;;;;;;;23.08;14.00;;;1.10;99.90;;;;;;2047239;29;20054;-75
2023/01/18 01:28:37;;;;;;;22.25;13.60;;;1.10;99.90;;;;;;2047935;29;20043;-75
2023/01/18 01:29:37;;;;;;;22.67;14.10;;;1.10;99.90;;;;;;2032626;29;20099;-77
2023/01/18 01:30:38;;;;;;;22.67;14.00;;;1.10;99.90;;;;;;2038224;29;20039;-75
2023/01/18 01:31:39;;;;;;;22.45;14.27;;;1.10;99.90;;;;;;2046455;28;20047;-75
2023/01/18 01:32:40;;;;;;;23.05;14.32;;;1.10;99.90;;;;;;2045862;28;20035;-75
2023/01/18 01:33:41;;;;;;;21.52;13.75;;;1.10;99.90;;;;;;2042054;29;20610;-75
2023/01/18 01:34:41;;;;;;;20.80;13.40;;;1.10;99.90;;;;;;2047782;28;20516;-76
2023/01/18 01:35:42;;;;;;;23.08;13.43;;;1.10;99.90;;;;;;2039961;28;20047;-75
2023/01/18 01:36:43;;;;;;;21.88;14.90;;;1.10;99.90;;;;;;2038229;29;20036;-76
2023/01/18 01:37:43;;;;;;;23.88;14.25;;;1.10;99.90;;;;;;2038534;29;20554;-76
2023/01/18 01:38:44;;;;;;;23.77;15.48;;;1.10;99.90;;;;;;2038947;29;20542;-76
2023/01/18 01:39:45;;;;;;;24.58;15.32;;;1.20;99.90;;;;;;2037265;29;20036;-76
2023/01/18 01:40:55;;;;;;;27.98;16.05;;;1.20;99.90;;;;;;2046934;29;20035;-76
2023/01/18 01:41:56;;;;;;;25.88;15.57;;;1.20;99.90;;;;;;2046895;29;20027;-75
2023/01/18 01:42:56;;;;;;;26.35;15.40;;;1.20;99.90;;;;;;2046885;29;20035;-75
2023/01/18 01:43:59;;;;;;;22.50;14.85;;;1.20;99.90;;;;;;2046947;29;20043;-76
2023/01/18 01:45:00;;;;;;;23.98;15.10;;;1.20;99.90;;;;;;2043037;29;20098;-75
2023/01/18 01:46:02;;;;;;;22.92;14.23;;;1.20;99.90;;;;;;2044992;29;20545;-75
2023/01/18 01:47:09;;;;;;;22.88;14.35;;;1.20;99.90;;;;;;2047184;29;20126;-75
2023/01/18 01:48:10;;;;;;;23.40;14.65;;;1.20;99.90;;;;;;2038855;29;20042;-74
2023/01/18 01:49:16;;;;;;;24.90;15.82;;;1.20;99.90;;;;;;2038563;29;20055;-76
2023/01/18 01:50:29;;;;;;;24.40;15.20;;;1.20;99.90;;;;;;2046428;29;20039;-75
2023/01/18 01:51:32;;;;;;;27.35;16.63;;;1.20;99.90;;;;;;2046638;28;20126;-76
2023/01/18 01:52:36;;;;;;;24.02;15.50;;;1.20;99.90;;;;;;2046907;29;20450;-75
2023/01/18 01:53:37;;;;;;;25.27;15.85;;;1.20;99.90;;;;;;2046924;29;20051;-75
2023/01/18 01:54:44;;;;;;;22.50;14.85;;;1.10;99.90;;;;;;2047152;29;20043;-75
2023/01/18 01:55:46;;;;;;;23.23;14.63;;;1.10;99.90;;;;;;2037124;29;20043;-74
2023/01/18 01:56:48;;;;;;;25.13;15.20;;;1.10;99.90;;;;;;2038851;29;20631;-74
2023/01/18 01:57:55;;;;;;;28.58;17.50;;;1.10;99.90;;;;;;2047030;29;20043;-74
2023/01/18 01:59:00;;;;;;;29.88;19.30;;;1.10;99.90;;;;;;2039307;29;20202;-74
2023/01/18 02:00:11;;;;;;;33.03;20.67;;;1.10;99.90;;;;;;2046543;29;20118;-75
2023/01/18 02:01:15;;;;;;;33.25;20.02;;;1.10;99.90;;;;;;2037465;29;20127;-75
2023/01/18 02:02:15;;;;;;;31.83;20.45;;;1.20;99.90;;;;;;2030577;29;20084;-75
2023/01/18 02:03:17;;;;;;;33.60;21.30;;;1.20;99.90;;;;;;2038669;29;20749;-74
2023/01/18 02:04:18;;;;;;;32.55;19.75;;;1.20;99.90;;;;;;2046730;29;20031;-74
2023/01/18 02:05:18;;;;;;;33.53;20.88;;;1.20;99.90;;;;;;2047019;29;20074;-74
2023/01/18 02:06:30;;;;;;;37.30;20.73;;;1.20;99.90;;;;;;2037124;29;20044;-74
2023/01/18 02:07:31;;;;;;;31.52;19.98;;;1.20;99.90;;;;;;2040076;29;20487;-74
2023/01/18 02:08:32;;;;;;;34.42;20.55;;;1.20;99.90;;;;;;2047186;29;20119;-74
2023/01/18 02:09:33;;;;;;;35.72;21.48;;;1.20;99.90;;;;;;2047148;29;20402;-74
2023/01/18 02:10:33;;;;;;;34.55;21.40;;;1.20;99.90;;;;;;2045895;28;20043;-74
2023/01/18 02:11:35;;;;;;;35.35;20.98;;;1.20;99.90;;;;;;2047559;29;20038;-74
2023/01/18 02:12:38;;;;;;;33.80;20.63;;;1.20;99.90;;;;;;2038139;29;20118;-74
2023/01/18 02:13:39;;;;;;;36.53;22.23;;;1.20;99.90;;;;;;2038392;29;20570;-74
2023/01/18 02:14:40;;;;;;;34.28;21.63;;;1.20;99.90;;;;;;2046647;29;20039;-74
2023/01/18 02:15:58;;;;;;;33.08;21.67;;;1.10;99.90;;;;;;2044857;29;20160;-74
2023/01/18 02:17:10;;;;;;;34.50;21.17;;;1.10;99.90;;;;;;2047164;29;20019;-74
2023/01/18 02:18:28;;;;;;;35.65;21.17;;;1.10;99.90;;;;;;2030809;29;20531;-74
2023/01/18 02:19:43;;;;;;;36.47;22.08;;;1.10;99.90;;;;;;2032265;29;20055;-74
2023/01/18 02:20:53;;;;;;;33.88;21.15;;;1.20;99.90;;;;;;2038301;28;20119;-74
2023/01/18 02:22:02;;;;;;;34.55;21.58;;;1.10;99.90;;;;;;2039230;29;20063;-75
2023/01/18 02:23:18;;;;;;;33.92;21.40;;;1.10;99.90;;;;;;2038823;29;20522;-74
2023/01/18 02:24:45;;;;;;;36.83;22.15;;;1.20;99.90;;;;;;2038393;29;20067;-74
2023/01/18 02:26:01;;;;;;;34.08;21.13;;;1.20;99.90;;;;;;2044739;29;20038;-73
2023/01/18 02:27:15;;;;;;;33.25;20.38;;;1.10;99.90;;;;;;2038947;29;20031;-75
2023/01/18 02:28:18;;;;;;;36.40;21.63;;;1.20;99.90;;;;;;2039401;29;20091;-73
2023/01/18 02:29:49;;;;;;;35.92;21.98;;;1.20;99.90;;;;;;2046592;29;20043;-73
2023/01/18 02:31:09;;;;;;;35.17;20.33;;;1.20;99.90;;;;;;2040820;28;20035;-73
2023/01/18 02:32:26;;;;;;;37.03;21.73;;;1.20;99.90;;;;;;2030517;29;20039;-74
2023/01/18 02:33:43;;;;;;;38.70;21.65;;;1.20;99.90;;;;;;2040524;29;20135;-74
2023/01/18 02:34:48;;;;;;;35.83;21.88;;;1.20;99.90;;;;;;2039206;29;20055;-74
2023/01/18 02:35:58;;;;;;;35.10;21.13;;;1.20;99.90;;;;;;2044525;29;20099;-74
2023/01/18 02:37:09;;;;;;;34.70;21.42;;;1.20;99.90;;;;;;2046898;29;20731;-74
2023/01/18 02:38:25;;;;;;;36.53;21.73;;;1.20;99.90;;;;;;2039738;29;20031;-74
2023/01/18 02:39:41;;;;;;;36.63;21.38;;;1.20;99.90;;;;;;2039297;29;20036;-74
2023/01/18 02:41:11;;;;;;;35.95;21.63;;;1.10;99.90;;;;;;2047242;28;20035;-74
2023/01/18 02:46:29;;;;;;;40.05;23.20;;;1.20;99.90;;;;;;2044275;28;20038;-74
2023/01/18 02:47:31;;;;;;;38.47;22.35;;;1.10;99.90;;;;;;2046531;29;20047;-74
2023/01/18 02:48:37;;;;;;;38.05;22.17;;;1.20;99.90;;;;;;2046776;29;20482;-75
2023/01/18 02:49:37;;;;;;;39.30;22.10;;;1.20;99.90;;;;;;2038252;29;20054;-73
2023/01/18 02:50:38;;;;;;;36.58;20.92;;;1.20;99.90;;;;;;2029044;29;20031;-75
2023/01/18 02:51:38;;;;;;;35.55;20.35;;;1.20;99.90;;;;;;2030442;29;20063;-74
2023/01/18 02:52:41;;;;;;;36.00;21.50;;;1.20;99.90;;;;;;2045250;29;20027;-74
2023/01/18 02:53:44;;;;;;;34.67;21.45;;;1.20;99.90;;;;;;2046530;29;20049;-75
2023/01/18 02:54:44;;;;;;;39.25;22.15;;;1.20;99.90;;;;;;2046484;29;20047;-75
2023/01/18 02:55:56;;;;;;;35.72;20.65;;;1.20;99.90;;;;;;2036770;29;20048;-74
2023/01/18 02:56:58;;;;;;;34.47;20.25;;;1.20;99.90;;;;;;2044489;28;20042;-74
2023/01/18 02:58:20;;;;;;;37.83;21.15;;;1.20;99.90;;;;;;2046245;28;20027;-75
2023/01/18 02:59:26;;;;;;;34.13;20.40;;;1.20;99.90;;;;;;2032705;29;20044;-74
2023/01/18 03:00:28;;;;;;;34.13;20.52;;;1.20;99.90;;;;;;2034980;29;20511;-75
2023/01/18 03:01:42;;;;;;;33.08;19.58;;;1.20;99.90;;;;;;2046406;29;20043;-74
2023/01/18 03:02:46;;;;;;;35.60;20.17;;;1.20;99.90;;;;;;2039026;29;20044;-74
2023/01/18 03:03:50;;;;;;;37.65;21.15;;;1.20;99.90;;;;;;2038189;29;20131;-74
2023/01/18 03:04:55;;;;;;;35.88;20.52;;;1.20;99.90;;;;;;2038486;29;20032;-74
2023/01/18 03:05:59;;;;;;;36.88;21.35;;;1.20;99.90;;;;;;2045596;29;20387;-75
2023/01/18 03:07:12;;;;;;;35.15;21.23;;;1.20;99.90;;;;;;2046229;29;20074;-74
2023/01/18 03:08:36;;;;;;;36.75;21.13;;;1.20;99.90;;;;;;2046548;29;20032;-75
2023/01/18 03:09:38;;;;;;;36.63;21.38;;;1.20;99.90;;;;;;2038075;29;20278;-75
2023/01/18 03:10:54;;;;;;;37.67;22.23;;;1.20;99.90;;;;;;2036075;29;20059;-75
2023/01/18 03:12:07;;;;;;;35.25;21.75;;;1.20;99.90;;;;;;2038437;29;20093;-75
2023/01/18 03:13:20;;;;;;;39.15;22.33;;;1.20;99.90;;;;;;2038613;29;20038;-75
2023/01/18 03:15:07;;;;;;;36.88;21.98;;;1.20;99.90;;;;;;2040788;29;20032;-74
2023/01/18 03:16:13;;;;;;;40.33;22.40;;;1.20;99.90;;;;;;2028892;29;20529;-74
2023/01/18 03:17:21;;;;;;;38.90;22.38;;;1.10;99.90;;;;;;2039639;29;20127;-75
2023/01/18 03:18:58;;;;;;;39.10;21.92;;;1.10;99.90;;;;;;2037896;29;20043;-74
2023/01/18 03:20:06;;;;;;;36.72;21.27;;;1.10;99.90;;;;;;2042629;29;20019;-74
2023/01/18 03:21:07;;;;;;;34.30;21.23;;;1.10;99.90;;;;;;2041741;29;20430;-75
2023/01/18 03:22:07;;;;;;;37.45;21.88;;;1.10;99.90;;;;;;2037896;29;20138;-74
2023/01/18 03:23:41;;;;;;;36.47;22.27;;;1.10;99.90;;;;;;2037863;29;20044;-75
2023/01/18 03:24:44;;;;;;;35.10;21.08;;;1.10;99.90;;;;;;2003502;29;20212;-74
2023/01/18 03:25:48;;;;;;;36.65;22.10;;;1.10;99.90;;;;;;2028220;28;20039;-74
2023/01/18 03:26:53;;;;;;;34.22;22.42;;;1.10;99.90;;;;;;2046631;28;20430;-75
2023/01/18 03:33:46;;;;;;;31.73;19.92;;;1.10;99.90;;;;;;2038337;29;20028;-75
2023/01/18 03:34:46;;;;;;;34.92;20.77;;;1.20;99.90;;;;;;2041412;28;20046;-74
2023/01/18 03:35:49;;;;;;;34.40;21.27;;;1.20;99.90;;;;;;2043863;28;20622;-74
2023/01/18 03:36:52;;;;;;;33.75;21.45;;;1.10;99.90;;;;;;2045904;28;20102;-75
2023/01/18 03:37:55;;;;;;;33.03;21.15;;;1.20;99.90;;;;;;2046339;29;20042;-76
2023/01/18 03:39:03;;;;;;;33.30;20.70;;;1.10;99.90;;;;;;2037882;29;20035;-76
2023/01/18 03:40:15;;;;;;;31.65;21.13;;;1.10;99.90;;;;;;2038972;29;20076;-74
2023/01/18 03:41:18;;;;;;;33.72;20.27;;;1.10;99.90;;;;;;2034847;29;20031;-75
2023/01/18 03:42:31;;;;;;;32.45;20.55;;;1.20;99.90;;;;;;2037748;29;20036;-75
2023/01/18 03:43:36;;;;;;;34.15;20.85;;;1.20;99.90;;;;;;2046020;29;20748;-74
2023/01/18 03:44:50;;;;;;;32.08;20.20;;;1.10;99.90;;;;;;2046244;29;20042;-74
2023/01/18 03:45:53;;;;;;;32.03;21.00;;;1.20;99.90;;;;;;2039000;29;20402;-75
2023/01/18 03:46:54;;;;;;;33.78;20.70;;;1.10;99.90;;;;;;2038340;29;20032;-75
2023/01/18 03:47:54;;;;;;;33.13;20.52;;;1.10;99.90;;;;;;2046103;29;20054;-75
2023/01/18 03:48:55;;;;;;;30.02;19.83;;;1.10;99.90;;;;;;2037787;29;20469;-74
2023/01/18 03:49:56;;;;;;;29.95;19.42;;;1.10;99.90;;;;;;2037565;29;20126;-74
2023/01/18 03:51:07;;;;;;;30.30;19.13;;;1.10;99.90;;;;;;2045124;29;20085;-75
2023/01/18 03:52:24;;;;;;;32.03;19.20;;;1.10;99.90;;;;;;2038373;29;20079;-75
2023/01/18 03:53:37;;;;;;;30.20;18.60;;;1.10;99.90;;;;;;2038206;29;20498;-73
2023/01/18 03:55:02;;;;;;;28.27;18.55;;;1.20;99.90;;;;;;2038566;29;20047;-74
2023/01/18 03:56:19;;;;;;;29.73;19.10;;;1.20;99.90;;;;;;2045592;29;20077;-74
2023/01/18 03:57:43;;;;;;;30.63;19.13;;;1.20;99.90;;;;;;2046372;29;20045;-73
2023/01/18 03:58:44;;;;;;;30.50;18.67;;;1.20;99.90;;;;;;2038784;29;20538;-73
2023/01/18 03:59:46;;;;;;;31.00;18.92;;;1.10;99.90;;;;;;2045706;29;20042;-73
2023/01/18 04:00:46;;;;;;;28.25;18.35;;;1.10;99.90;;;;;;2044721;29;20086;-74
2023/01/18 04:01:48;;;;;;;29.02;18.52;;;1.20;99.90;;;;;;2046141;29;20042;-73
2023/01/18 04:02:49;;;;;;;27.15;18.00;;;1.10;99.90;;;;;;2046501;29;20031;-74
2023/01/18 04:03:50;;;;;;;28.02;19.17;;;1.10;99.90;;;;;;2046028;29;20118;-74
2023/01/18 04:04:56;;;;;;;29.90;18.85;;;1.10;99.90;;;;;;2046071;29;20635;-74
2023/01/18 04:05:57;;;;;;;28.58;18.70;;;1.10;99.90;;;;;;2036988;29;20056;-73
2023/01/18 04:06:58;;;;;;;28.42;17.63;;;1.10;99.90;;;;;;2037369;29;20066;-73
2023/01/18 04:07:59;;;;;;;28.67;18.15;;;1.10;99.90;;;;;;2045368;29;20023;-73
2023/01/18 04:08:59;;;;;;;31.35;18.60;;;1.10;99.90;;;;;;2045925;29;20188;-73
2023/01/18 04:10:00;;;;;;;28.33;18.60;;;1.10;99.90;;;;;;2046190;29;20031;-74
2023/01/18 04:11:00;;;;;;;30.92;18.50;;;1.10;99.90;;;;;;2044175;29;20595;-73
2023/01/18 04:12:01;;;;;;;28.35;18.40;;;1.10;99.90;;;;;;2046199;29;20095;-73
2023/01/18 04:13:01;;;;;;;28.30;18.52;;;1.10;99.90;;;;;;2045944;29;20059;-73
2023/01/18 04:14:02;;;;;;;30.27;18.98;;;1.10;99.90;;;;;;2045974;29;20032;-73
2023/01/18 04:15:03;;;;;;;29.92;18.83;;;1.10;99.90;;;;;;2046055;29;20032;-73
2023/01/18 04:16:04;;;;;;;32.08;20.13;;;1.10;99.90;;;;;;2045125;29;20050;-74
2023/01/18 04:17:04;;;;;;;30.75;19.08;;;1.10;99.90;;;;;;2046328;29;20042;-73
2023/01/18 04:18:05;;;;;;;28.73;18.45;;;1.10;99.90;;;;;;2046096;29;20497;-73
2023/01/18 04:19:07;;;;;;;29.52;19.00;;;1.10;99.90;;;;;;2045970;29;20483;-73
2023/01/18 04:20:08;;;;;;;29.83;18.45;;;1.10;99.90;;;;;;2045909;29;20050;-73
2023/01/18 04:21:09;;;;;;;30.25;19.63;;;1.10;99.90;;;;;;2050348;28;20039;-73
2023/01/18 04:22:10;;;;;;;32.63;19.60;;;1.20;99.90;;;;;;2038253;29;20031;-73
2023/01/18 04:23:10;;;;;;;31.10;20.13;;;1.20;99.90;;;;;;2037893;29;20023;-74
2023/01/18 04:24:11;;;;;;;31.58;19.95;;;1.20;99.90;;;;;;2045480;29;20047;-73
2023/01/18 04:25:11;;;;;;;35.55;21.10;;;1.20;99.90;;;;;;2046167;29;20121;-73
2023/01/18 04:26:15;;;;;;;34.72;20.67;;;1.20;99.90;;;;;;2045231;29;20691;-73
2023/01/18 04:27:15;;;;;;;32.65;20.15;;;1.20;99.90;;;;;;2046482;29;20039;-73
2023/01/18 04:28:24;;;;;;;32.30;20.45;;;1.20;99.90;;;;;;2046273;29;20399;-73
2023/01/18 04:29:24;;;;;;;30.35;19.65;;;1.20;99.90;;;;;;2046444;29;20027;-73
2023/01/18 04:30:26;;;;;;;32.55;19.60;;;1.20;99.90;;;;;;2037449;29;20035;-73
2023/01/18 04:31:26;;;;;;;31.13;20.17;;;1.20;99.90;;;;;;2036374;29;20032;-73
2023/01/18 04:32:27;;;;;;;31.00;19.73;;;1.20;99.90;;;;;;2045584;29;20031;-75
2023/01/18 04:33:28;;;;;;;26.95;17.92;;;1.20;99.90;;;;;;2045912;29;20049;-73
2023/01/18 04:34:28;;;;;;;28.60;18.70;;;1.20;99.90;;;;;;2046499;29;20067;-74
2023/01/18 04:35:29;;;;;;;29.23;18.75;;;1.20;99.90;;;;;;2044061;29;20023;-74
2023/01/18 04:36:30;;;;;;;31.40;19.33;;;1.20;99.90;;;;;;2046471;29;20502;-75
2023/01/18 04:37:32;;;;;;;30.55;19.30;;;1.20;99.90;;;;;;2046163;29;20035;-74
2023/01/18 04:38:33;;;;;;;30.13;19.48;;;1.20;99.90;;;;;;2046104;28;20065;-74
2023/01/18 04:39:35;;;;;;;29.75;19.00;;;1.30;99.90;;;;;;2046127;29;20050;-74
2023/01/18 04:40:35;;;;;;;32.60;20.55;;;1.20;99.90;;;;;;2044428;29;20521;-73
2023/01/18 04:41:36;;;;;;;31.08;20.00;;;1.20;99.90;;;;;;2046501;29;20035;-74
2023/01/18 04:42:36;;;;;;;30.95;20.05;;;1.20;99.90;;;;;;2046076;29;20039;-74
2023/01/18 04:43:37;;;;;;;32.13;20.75;;;1.30;99.90;;;;;;2046139;29;20027;-73
2023/01/18 04:44:38;;;;;;;31.65;20.63;;;1.30;99.90;;;;;;2046140;29;20504;-74
2023/01/18 04:45:38;;;;;;;30.08;19.67;;;1.20;99.90;;;;;;2037197;29;20035;-70
2023/01/18 04:46:39;;;;;;;28.40;19.08;;;1.20;99.90;;;;;;2046147;29;20495;-74
2023/01/18 04:47:39;;;;;;;28.40;18.50;;;1.20;99.90;;;;;;2046005;29;20026;-73
2023/01/18 04:48:41;;;;;;;28.35;19.15;;;1.10;99.90;;;;;;2039979;29;20547;-76
2023/01/18 04:49:41;;;;;;;30.27;18.80;;;1.20;99.90;;;;;;2040238;29;20538;-73
2023/01/18 04:50:45;;;;;;;29.95;19.77;;;1.10;99.90;;;;;;2044934;28;20060;-74
2023/01/18 04:51:46;;;;;;;28.83;19.55;;;1.10;99.90;;;;;;2033406;29;20418;-74
2023/01/18 04:52:46;;;;;;;30.63;19.15;;;1.10;99.90;;;;;;2037179;29;20035;-74
2023/01/18 04:53:47;;;;;;;27.90;19.05;;;1.10;99.90;;;;;;2045629;29;20039;-74
2023/01/18 04:54:48;;;;;;;30.38;19.27;;;1.10;99.90;;;;;;2046076;29;20043;-73
2023/01/18 04:55:48;;;;;;;33.40;20.58;;;1.10;99.90;;;;;;2044545;29;20345;-77
2023/01/18 04:56:50;;;;;;;32.25;20.33;;;1.10;99.90;;;;;;2045732;29;20031;-75
2023/01/18 04:57:55;;;;;;;33.25;20.65;;;1.10;99.90;;;;;;2045803;29;20023;-74
2023/01/18 04:58:56;;;;;;;31.23;20.23;;;1.10;99.90;;;;;;2045910;29;20031;-75
2023/01/18 04:59:59;;;;;;;34.92;20.90;;;1.10;99.90;;;;;;2045778;29;20027;-74
2023/01/18 05:01:04;;;;;;;31.90;20.33;;;1.00;99.90;;;;;;2033077;29;20052;-74
2023/01/18 05:02:04;;;;;;;35.35;21.15;;;1.10;99.90;;;;;;2030600;29;20126;-75
2023/01/18 05:03:07;;;;;;;35.42;21.55;;;1.10;99.90;;;;;;2038014;29;20113;-74
2023/01/18 05:04:07;;;;;;;33.00;21.42;;;1.00;99.90;;;;;;2037988;29;20023;-74
2023/01/18 05:05:08;;;;;;;35.47;21.25;;;1.00;99.90;;;;;;2045790;29;20031;-74
2023/01/18 05:06:11;;;;;;;36.42;22.15;;;1.00;99.90;;;;;;2045607;29;20031;-74
2023/01/18 05:07:12;;;;;;;33.67;21.38;;;1.00;99.90;;;;;;2047521;29;20126;-75
2023/01/18 05:08:12;;;;;;;32.88;20.02;;;0.90;99.90;;;;;;2047465;29;20537;-75
2023/01/18 05:09:13;;;;;;;34.08;21.08;;;0.90;99.90;;;;;;2039023;29;20127;-74
2023/01/18 05:10:14;;;;;;;33.85;22.20;;;0.90;99.90;;;;;;2039136;29;20039;-73
2023/01/18 05:11:16;;;;;;;34.17;21.33;;;0.90;99.90;;;;;;2045649;28;20057;-74
2023/01/18 05:12:17;;;;;;;33.05;20.92;;;0.90;99.90;;;;;;2047587;29;20042;-73
2023/01/18 05:13:18;;;;;;;32.45;22.02;;;1.00;99.90;;;;;;2047447;29;20054;-74
2023/01/18 05:14:18;;;;;;;34.33;22.35;;;1.00;99.90;;;;;;2047546;29;20075;-74
2023/01/18 05:15:19;;;;;;;36.55;22.13;;;1.00;99.90;;;;;;2038903;29;20040;-74
2023/01/18 05:16:21;;;;;;;33.65;21.27;;;1.00;99.90;;;;;;2037654;29;20051;-73
2023/01/18 05:17:26;;;;;;;31.30;20.40;;;1.00;99.90;;;;;;2039423;29;20047;-73
2023/01/18 05:18:27;;;;;;;33.95;21.85;;;1.00;99.90;;;;;;2047168;29;20038;-72
2023/01/18 05:19:29;;;;;;;40.25;22.35;;;1.00;99.90;;;;;;2047056;28;20598;-73
2023/01/18 05:20:29;;;;;;;32.55;21.45;;;1.00;99.90;;;;;;2045453;29;20031;-74
2023/01/18 05:21:30;;;;;;;32.28;21.20;;;1.00;99.90;;;;;;2039120;29;20839;-73
2023/01/18 05:22:31;;;;;;;31.55;20.42;;;1.00;99.90;;;;;;2038941;29;20027;-73
2023/01/18 05:23:32;;;;;;;33.22;20.75;;;1.00;99.90;;;;;;2047376;29;20035;-74
2023/01/18 05:24:33;;;;;;;31.63;20.27;;;1.00;99.90;;;;;;2044979;29;20027;-72
2023/01/18 05:25:33;;;;;;;31.85;20.27;;;1.00;99.90;;;;;;2047046;29;20039;-73
2023/01/18 05:26:34;;;;;;;32.45;20.70;;;1.00;99.90;;;;;;2047272;29;20734;-73
2023/01/18 05:27:34;;;;;;;35.72;22.13;;;1.00;99.90;;;;;;2046980;29;20120;-73
2023/01/18 05:28:35;;;;;;;32.85;21.88;;;1.10;99.90;;;;;;2047342;29;20031;-74
2023/01/18 05:29:35;;;;;;;31.05;20.85;;;1.00;99.90;;;;;;2046315;29;20082;-74
2023/01/18 05:30:41;;;;;;;32.13;20.73;;;1.00;99.90;;;;;;2047306;29;20027;-73
2023/01/18 05:31:41;;;;;;;32.22;20.45;;;1.00;99.90;;;;;;2038484;29;20480;-74
2023/01/18 05:32:42;;;;;;;32.65;21.10;;;1.00;99.90;;;;;;2038458;29;20142;-73
2023/01/18 05:33:42;;;;;;;32.55;20.95;;;1.00;99.90;;;;;;2046907;29;20086;-73
2023/01/18 05:34:43;;;;;;;33.00;20.55;;;1.00;99.90;;;;;;2045108;29;20125;-74
2023/01/18 05:35:51;;;;;;;34.83;21.13;;;1.00;99.90;;;;;;2047004;29;20058;-74
2023/01/18 05:36:51;;;;;;;35.42;21.45;;;1.00;99.90;;;;;;2047124;28;20149;-73
2023/01/18 05:37:52;;;;;;;35.83;22.45;;;1.00;99.90;;;;;;2046994;29;20110;-74
2023/01/18 05:38:53;;;;;;;36.75;22.60;;;1.00;99.90;;;;;;2046845;29;20027;-74
2023/01/18 05:39:54;;;;;;;33.38;21.05;;;0.90;99.90;;;;;;2037586;29;20153;-73
2023/01/18 05:40:54;;;;;;;32.15;20.00;;;0.90;99.90;;;;;;2038456;29;20197;-73
2023/01/18 05:41:55;;;;;;;33.17;21.25;;;0.90;99.90;;;;;;2043087;29;20031;-73
2023/01/18 05:42:55;;;;;;;35.33;21.30;;;0.90;99.90;;;;;;2039318;29;20502;-74
2023/01/18 05:43:56;;;;;;;35.35;21.08;;;0.90;99.90;;;;;;2038194;29;20032;-73
2023/01/18 05:44:57;;;;;;;30.60;19.88;;;0.90;99.90;;;;;;2044614;29;20035;-73
2023/01/18 05:45:58;;;;;;;33.97;20.13;;;0.90;99.90;;;;;;2039599;29;20030;-73
2023/01/18 05:46:58;;;;;;;33.38;19.67;;;0.90;99.90;;;;;;2046650;29;20121;-73
2023/01/18 05:47:59;;;;;;;33.85;20.42;;;0.90;99.90;;;;;;2046866;29;20034;-74
2023/01/18 05:48:59;;;;;;;29.77;20.08;;;0.90;99.90;;;;;;2046630;29;20055;-73
2023/01/18 05:50:00;;;;;;;30.65;18.77;;;0.90;99.90;;;;;;2044793;29;20261;-73
2023/01/18 05:51:09;;;;;;;28.27;18.20;;;0.90;99.90;;;;;;2046814;29;20039;-74
2023/01/18 05:52:10;;;;;;;29.70;19.40;;;0.90;99.90;;;;;;2043702;29;20038;-75
2023/01/18 05:53:12;;;;;;;32.20;19.90;;;0.90;99.90;;;;;;2046466;29;20541;-74
2023/01/18 05:54:13;;;;;;;32.00;20.20;;;0.90;99.90;;;;;;2044918;29;20031;-74
2023/01/18 05:55:14;;;;;;;33.03;19.65;;;0.90;99.90;;;;;;2046781;28;20559;-74
2023/01/18 05:56:15;;;;;;;30.73;20.17;;;0.90;99.90;;;;;;2038082;29;20490;-73
2023/01/18 05:57:15;;;;;;;32.45;19.27;;;0.90;99.90;;;;;;2038126;29;20036;-73
2023/01/18 05:58:16;;;;;;;30.75;19.13;;;0.80;99.90;;;;;;2046247;28;20514;-74